sensor_id;sensor_type;location;lat;lon;timestamp;P1;durP1;ratioP1;P2;durP2;ratioP2
72647;SDS011;60693;50.002;8.644;2022-12-17T00:00:27;10.05;;;2.97;;
72647;SDS011;60693;50.002;8.644;2022-12-17T00:03:20;12.00;;;2.63;;
72647;SDS011;60693;50.002;8.644;2022-12-17T00:06:04;9.32;;;2.83;;
72647;SDS011;60693;50.002;8.644;2022-12-17T00:08:48;10.03;;;2.70;;
72647;SDS011;60693;50.002;8.644;2022-12-17T00:11:32;7.25;;;2.55;;
72647;SDS011;60693;50.002;8.644;2022-12-17T00:14:16;12.68;;;3.60;;
72647;SDS011;60693;50.002;8.644;2022-12-17T00:17:00;9.00;;;2.13;;
72647;SDS011;60693;50.002;8.644;2022-12-17T00:19:44;9.18;;;2.58;;
72647;SDS011;60693;50.002;8.644;2022-12-17T00:22:29;11.63;;;3.00;;
72647;SDS011;60693;50.002;8.644;2022-12-17T00:25:13;9.80;;;3.13;;
72647;SDS011;60693;50.002;8.644;2022-12-17T00:27:57;9.93;;;2.72;;
72647;SDS011;60693;50.002;8.644;2022-12-17T00:30:41;10.27;;;2.97;;
72647;SDS011;60693;50.002;8.644;2022-12-17T00:33:25;10.00;;;3.58;;
72647;SDS011;60693;50.002;8.644;2022-12-17T00:36:10;11.97;;;3.60;;
72647;SDS011;60693;50.002;8.644;2022-12-17T00:38:54;10.63;;;2.78;;
72647;SDS011;60693;50.002;8.644;2022-12-17T00:41:38;10.35;;;2.78;;
72647;SDS011;60693;50.002;8.644;2022-12-17T00:44:22;10.80;;;3.17;;
72647;SDS011;60693;50.002;8.644;2022-12-17T00:47:06;14.35;;;3.35;;
72647;SDS011;60693;50.002;8.644;2022-12-17T00:49:55;13.97;;;4.03;;
72647;SDS011;60693;50.002;8.644;2022-12-17T00:52:39;10.23;;;3.15;;
72647;SDS011;60693;50.002;8.644;2022-12-17T00:55:23;19.27;;;3.63;;
72647;SDS011;60693;50.002;8.644;2022-12-17T00:58:07;12.82;;;3.22;;
72647;SDS011;60693;50.002;8.644;2022-12-17T01:00:56;12.73;;;3.88;;
72647;SDS011;60693;50.002;8.644;2022-12-17T01:03:41;10.27;;;2.67;;
72647;SDS011;60693;50.002;8.644;2022-12-17T01:06:26;10.73;;;2.88;;
72647;SDS011;60693;50.002;8.644;2022-12-17T01:09:10;10.45;;;3.03;;
72647;SDS011;60693;50.002;8.644;2022-12-17T01:11:54;16.08;;;3.88;;
72647;SDS011;60693;50.002;8.644;2022-12-17T01:14:38;9.50;;;3.80;;
72647;SDS011;60693;50.002;8.644;2022-12-17T01:17:27;11.80;;;3.47;;
72647;SDS011;60693;50.002;8.644;2022-12-17T01:20:11;9.43;;;2.90;;
72647;SDS011;60693;50.002;8.644;2022-12-17T01:22:55;12.57;;;3.22;;
72647;SDS011;60693;50.002;8.644;2022-12-17T01:25:39;10.07;;;2.80;;
72647;SDS011;60693;50.002;8.644;2022-12-17T01:28:24;10.53;;;2.83;;
72647;SDS011;60693;50.002;8.644;2022-12-17T01:31:09;7.72;;;1.83;;
72647;SDS011;60693;50.002;8.644;2022-12-17T01:33:53;9.10;;;2.90;;
72647;SDS011;60693;50.002;8.644;2022-12-17T01:36:37;11.27;;;3.65;;
72647;SDS011;60693;50.002;8.644;2022-12-17T01:39:22;8.45;;;2.90;;
72647;SDS011;60693;50.002;8.644;2022-12-17T01:42:12;9.30;;;2.63;;
72647;SDS011;60693;50.002;8.644;2022-12-17T01:44:56;8.15;;;3.17;;
72647;SDS011;60693;50.002;8.644;2022-12-17T01:47:43;11.98;;;3.95;;
72647;SDS011;60693;50.002;8.644;2022-12-17T01:50:33;9.55;;;2.75;;
72647;SDS011;60693;50.002;8.644;2022-12-17T01:53:22;16.73;;;4.38;;
72647;SDS011;60693;50.002;8.644;2022-12-17T01:56:10;12.20;;;3.40;;
72647;SDS011;60693;50.002;8.644;2022-12-17T01:58:56;9.95;;;3.78;;
72647;SDS011;60693;50.002;8.644;2022-12-17T02:01:40;15.38;;;3.20;;
72647;SDS011;60693;50.002;8.644;2022-12-17T02:04:25;9.23;;;3.17;;
72647;SDS011;60693;50.002;8.644;2022-12-17T02:10:22;8.27;;;2.60;;
72647;SDS011;60693;50.002;8.644;2022-12-17T02:13:20;11.55;;;3.42;;
72647;SDS011;60693;50.002;8.644;2022-12-17T02:16:08;12.82;;;4.00;;
72647;SDS011;60693;50.002;8.644;2022-12-17T02:18:59;8.38;;;3.03;;
72647;SDS011;60693;50.002;8.644;2022-12-17T02:21:58;16.55;;;3.28;;
72647;SDS011;60693;50.002;8.644;2022-12-17T02:24:57;16.90;;;3.47;;
72647;SDS011;60693;50.002;8.644;2022-12-17T02:27:47;10.52;;;2.40;;
72647;SDS011;60693;50.002;8.644;2022-12-17T02:30:32;14.60;;;3.25;;
72647;SDS011;60693;50.002;8.644;2022-12-17T02:33:16;12.65;;;4.03;;
72647;SDS011;60693;50.002;8.644;2022-12-17T02:36:01;13.43;;;3.72;;
72647;SDS011;60693;50.002;8.644;2022-12-17T02:38:48;10.37;;;2.97;;
72647;SDS011;60693;50.002;8.644;2022-12-17T02:41:36;20.30;;;5.07;;
72647;SDS011;60693;50.002;8.644;2022-12-17T02:44:21;11.25;;;4.32;;
72647;SDS011;60693;50.002;8.644;2022-12-17T02:47:06;11.00;;;3.40;;
72647;SDS011;60693;50.002;8.644;2022-12-17T02:49:52;13.70;;;3.88;;
72647;SDS011;60693;50.002;8.644;2022-12-17T02:52:38;11.10;;;3.80;;
72647;SDS011;60693;50.002;8.644;2022-12-17T02:55:26;14.93;;;4.07;;
72647;SDS011;60693;50.002;8.644;2022-12-17T02:58:10;13.50;;;4.47;;
72647;SDS011;60693;50.002;8.644;2022-12-17T03:00:54;12.73;;;3.22;;
72647;SDS011;60693;50.002;8.644;2022-12-17T03:03:39;8.77;;;3.27;;
72647;SDS011;60693;50.002;8.644;2022-12-17T03:06:23;11.93;;;3.97;;
72647;SDS011;60693;50.002;8.644;2022-12-17T03:09:15;10.40;;;3.33;;
72647;SDS011;60693;50.002;8.644;2022-12-17T03:11:59;12.63;;;3.58;;
72647;SDS011;60693;50.002;8.644;2022-12-17T03:14:43;11.32;;;4.40;;
72647;SDS011;60693;50.002;8.644;2022-12-17T03:17:28;11.23;;;3.27;;
72647;SDS011;60693;50.002;8.644;2022-12-17T03:20:13;13.07;;;4.10;;
72647;SDS011;60693;50.002;8.644;2022-12-17T03:23:01;12.00;;;3.65;;
72647;SDS011;60693;50.002;8.644;2022-12-17T03:25:47;12.02;;;3.00;;
72647;SDS011;60693;50.002;8.644;2022-12-17T03:28:31;12.57;;;3.23;;
72647;SDS011;60693;50.002;8.644;2022-12-17T03:31:15;12.52;;;3.80;;
72647;SDS011;60693;50.002;8.644;2022-12-17T03:33:59;11.02;;;3.83;;
72647;SDS011;60693;50.002;8.644;2022-12-17T03:36:44;10.65;;;3.42;;
72647;SDS011;60693;50.002;8.644;2022-12-17T03:39:28;9.75;;;3.08;;
72647;SDS011;60693;50.002;8.644;2022-12-17T03:42:12;12.93;;;4.17;;
72647;SDS011;60693;50.002;8.644;2022-12-17T03:44:56;15.30;;;3.47;;
72647;SDS011;60693;50.002;8.644;2022-12-17T03:47:40;12.20;;;3.25;;
72647;SDS011;60693;50.002;8.644;2022-12-17T03:50:24;12.07;;;4.07;;
72647;SDS011;60693;50.002;8.644;2022-12-17T03:53:09;12.07;;;3.47;;
72647;SDS011;60693;50.002;8.644;2022-12-17T03:55:53;8.73;;;2.60;;
72647;SDS011;60693;50.002;8.644;2022-12-17T03:58:37;9.38;;;3.40;;
72647;SDS011;60693;50.002;8.644;2022-12-17T04:01:21;15.10;;;4.15;;
72647;SDS011;60693;50.002;8.644;2022-12-17T04:04:05;11.43;;;3.60;;
72647;SDS011;60693;50.002;8.644;2022-12-17T04:06:49;13.02;;;3.75;;
72647;SDS011;60693;50.002;8.644;2022-12-17T04:09:34;12.65;;;3.05;;
72647;SDS011;60693;50.002;8.644;2022-12-17T04:12:18;10.20;;;3.60;;
72647;SDS011;60693;50.002;8.644;2022-12-17T04:15:03;10.90;;;3.47;;
72647;SDS011;60693;50.002;8.644;2022-12-17T04:17:48;14.23;;;4.82;;
72647;SDS011;60693;50.002;8.644;2022-12-17T04:20:32;12.77;;;2.97;;
72647;SDS011;60693;50.002;8.644;2022-12-17T04:23:16;10.23;;;3.53;;
72647;SDS011;60693;50.002;8.644;2022-12-17T04:26:00;14.05;;;3.33;;
72647;SDS011;60693;50.002;8.644;2022-12-17T04:28:45;11.27;;;3.40;;
72647;SDS011;60693;50.002;8.644;2022-12-17T04:31:29;14.23;;;3.47;;
72647;SDS011;60693;50.002;8.644;2022-12-17T04:34:15;10.52;;;3.63;;
72647;SDS011;60693;50.002;8.644;2022-12-17T04:36:59;10.75;;;4.05;;
72647;SDS011;60693;50.002;8.644;2022-12-17T04:39:43;13.38;;;4.03;;
72647;SDS011;60693;50.002;8.644;2022-12-17T04:42:27;13.90;;;4.67;;
72647;SDS011;60693;50.002;8.644;2022-12-17T04:45:12;10.88;;;3.75;;
72647;SDS011;60693;50.002;8.644;2022-12-17T04:47:59;13.57;;;3.67;;
72647;SDS011;60693;50.002;8.644;2022-12-17T04:50:47;13.23;;;5.68;;
72647;SDS011;60693;50.002;8.644;2022-12-17T04:53:31;13.63;;;4.57;;
72647;SDS011;60693;50.002;8.644;2022-12-17T04:56:15;10.88;;;4.05;;
72647;SDS011;60693;50.002;8.644;2022-12-17T04:59:00;11.63;;;3.58;;
72647;SDS011;60693;50.002;8.644;2022-12-17T05:01:44;14.30;;;4.32;;
72647;SDS011;60693;50.002;8.644;2022-12-17T05:04:28;17.02;;;4.43;;
72647;SDS011;60693;50.002;8.644;2022-12-17T05:07:12;11.50;;;3.07;;
72647;SDS011;60693;50.002;8.644;2022-12-17T05:09:56;11.32;;;4.25;;
72647;SDS011;60693;50.002;8.644;2022-12-17T05:12:40;15.20;;;4.78;;
72647;SDS011;60693;50.002;8.644;2022-12-17T05:15:24;14.88;;;4.28;;
72647;SDS011;60693;50.002;8.644;2022-12-17T05:18:09;13.60;;;3.35;;
72647;SDS011;60693;50.002;8.644;2022-12-17T05:20:53;11.98;;;4.43;;
72647;SDS011;60693;50.002;8.644;2022-12-17T05:23:37;11.93;;;3.45;;
72647;SDS011;60693;50.002;8.644;2022-12-17T05:26:23;13.23;;;4.88;;
72647;SDS011;60693;50.002;8.644;2022-12-17T05:29:08;18.63;;;4.18;;
72647;SDS011;60693;50.002;8.644;2022-12-17T05:31:53;13.50;;;3.53;;
72647;SDS011;60693;50.002;8.644;2022-12-17T05:34:38;12.95;;;4.15;;
72647;SDS011;60693;50.002;8.644;2022-12-17T05:37:22;13.15;;;4.90;;
72647;SDS011;60693;50.002;8.644;2022-12-17T05:40:07;12.88;;;3.80;;
72647;SDS011;60693;50.002;8.644;2022-12-17T05:42:55;12.37;;;3.73;;
72647;SDS011;60693;50.002;8.644;2022-12-17T05:45:44;17.85;;;4.60;;
72647;SDS011;60693;50.002;8.644;2022-12-17T05:48:29;8.43;;;3.28;;
72647;SDS011;60693;50.002;8.644;2022-12-17T05:51:14;15.05;;;3.95;;
72647;SDS011;60693;50.002;8.644;2022-12-17T05:53:59;15.00;;;4.40;;
72647;SDS011;60693;50.002;8.644;2022-12-17T05:56:43;11.65;;;3.88;;
72647;SDS011;60693;50.002;8.644;2022-12-17T05:59:27;9.77;;;3.40;;
72647;SDS011;60693;50.002;8.644;2022-12-17T06:02:11;9.93;;;3.13;;
72647;SDS011;60693;50.002;8.644;2022-12-17T06:04:56;14.23;;;4.40;;
72647;SDS011;60693;50.002;8.644;2022-12-17T06:07:40;16.77;;;4.43;;
72647;SDS011;60693;50.002;8.644;2022-12-17T06:10:24;12.05;;;3.80;;
72647;SDS011;60693;50.002;8.644;2022-12-17T06:13:09;11.07;;;3.75;;
72647;SDS011;60693;50.002;8.644;2022-12-17T06:15:53;10.67;;;3.10;;
72647;SDS011;60693;50.002;8.644;2022-12-17T06:18:37;11.18;;;3.63;;
72647;SDS011;60693;50.002;8.644;2022-12-17T06:21:21;13.45;;;4.22;;
72647;SDS011;60693;50.002;8.644;2022-12-17T06:24:06;11.80;;;4.03;;
72647;SDS011;60693;50.002;8.644;2022-12-17T06:26:50;13.23;;;4.25;;
72647;SDS011;60693;50.002;8.644;2022-12-17T06:29:35;16.73;;;3.27;;
72647;SDS011;60693;50.002;8.644;2022-12-17T06:32:20;19.00;;;4.72;;
72647;SDS011;60693;50.002;8.644;2022-12-17T06:35:04;15.75;;;4.47;;
72647;SDS011;60693;50.002;8.644;2022-12-17T06:37:59;16.70;;;4.85;;
72647;SDS011;60693;50.002;8.644;2022-12-17T06:40:44;13.48;;;4.35;;
72647;SDS011;60693;50.002;8.644;2022-12-17T06:43:28;18.40;;;4.97;;
72647;SDS011;60693;50.002;8.644;2022-12-17T06:46:12;19.92;;;4.40;;
72647;SDS011;60693;50.002;8.644;2022-12-17T06:48:56;14.27;;;4.03;;
72647;SDS011;60693;50.002;8.644;2022-12-17T06:51:40;15.27;;;4.43;;
72647;SDS011;60693;50.002;8.644;2022-12-17T06:54:25;12.70;;;4.43;;
72647;SDS011;60693;50.002;8.644;2022-12-17T06:57:09;16.00;;;4.10;;
72647;SDS011;60693;50.002;8.644;2022-12-17T06:59:53;14.73;;;4.90;;
72647;SDS011;60693;50.002;8.644;2022-12-17T07:02:37;15.82;;;4.35;;
72647;SDS011;60693;50.002;8.644;2022-12-17T07:05:21;15.57;;;5.13;;
72647;SDS011;60693;50.002;8.644;2022-12-17T07:08:06;15.73;;;4.40;;
72647;SDS011;60693;50.002;8.644;2022-12-17T07:10:50;14.13;;;4.40;;
72647;SDS011;60693;50.002;8.644;2022-12-17T07:13:34;21.60;;;4.35;;
72647;SDS011;60693;50.002;8.644;2022-12-17T07:16:18;13.07;;;4.47;;
72647;SDS011;60693;50.002;8.644;2022-12-17T07:19:03;17.95;;;4.15;;
72647;SDS011;60693;50.002;8.644;2022-12-17T07:21:47;17.10;;;5.28;;
72647;SDS011;60693;50.002;8.644;2022-12-17T07:24:33;15.40;;;3.33;;
72647;SDS011;60693;50.002;8.644;2022-12-17T07:27:17;15.70;;;5.38;;
72647;SDS011;60693;50.002;8.644;2022-12-17T07:30:02;18.95;;;5.18;;
72647;SDS011;60693;50.002;8.644;2022-12-17T07:32:46;15.30;;;5.45;;
72647;SDS011;60693;50.002;8.644;2022-12-17T07:35:31;17.65;;;4.78;;
72647;SDS011;60693;50.002;8.644;2022-12-17T07:38:15;17.40;;;4.90;;
72647;SDS011;60693;50.002;8.644;2022-12-17T07:40:59;14.32;;;4.78;;
72647;SDS011;60693;50.002;8.644;2022-12-17T07:43:43;14.15;;;4.97;;
72647;SDS011;60693;50.002;8.644;2022-12-17T07:46:27;18.23;;;5.05;;
72647;SDS011;60693;50.002;8.644;2022-12-17T07:49:12;16.52;;;5.90;;
72647;SDS011;60693;50.002;8.644;2022-12-17T07:51:56;11.57;;;4.37;;
72647;SDS011;60693;50.002;8.644;2022-12-17T07:54:40;15.00;;;3.42;;
72647;SDS011;60693;50.002;8.644;2022-12-17T07:57:27;15.85;;;5.00;;
72647;SDS011;60693;50.002;8.644;2022-12-17T08:00:11;15.32;;;5.55;;
72647;SDS011;60693;50.002;8.644;2022-12-17T08:02:56;18.27;;;5.63;;
72647;SDS011;60693;50.002;8.644;2022-12-17T08:05:41;18.73;;;6.10;;
72647;SDS011;60693;50.002;8.644;2022-12-17T08:08:25;23.50;;;6.75;;
72647;SDS011;60693;50.002;8.644;2022-12-17T08:11:10;26.08;;;9.30;;
72647;SDS011;60693;50.002;8.644;2022-12-17T08:13:54;18.60;;;5.18;;
72647;SDS011;60693;50.002;8.644;2022-12-17T08:16:38;31.13;;;10.63;;
72647;SDS011;60693;50.002;8.644;2022-12-17T08:19:22;17.23;;;5.10;;
72647;SDS011;60693;50.002;8.644;2022-12-17T08:22:07;16.25;;;5.60;;
72647;SDS011;60693;50.002;8.644;2022-12-17T08:24:51;13.68;;;4.25;;
72647;SDS011;60693;50.002;8.644;2022-12-17T08:27:35;17.67;;;5.80;;
72647;SDS011;60693;50.002;8.644;2022-12-17T08:30:20;22.23;;;5.57;;
72647;SDS011;60693;50.002;8.644;2022-12-17T08:33:04;14.53;;;4.50;;
72647;SDS011;60693;50.002;8.644;2022-12-17T08:35:52;18.15;;;5.47;;
72647;SDS011;60693;50.002;8.644;2022-12-17T08:38:38;19.02;;;5.50;;
72647;SDS011;60693;50.002;8.644;2022-12-17T08:41:22;23.88;;;7.07;;
72647;SDS011;60693;50.002;8.644;2022-12-17T08:44:06;22.73;;;6.63;;
72647;SDS011;60693;50.002;8.644;2022-12-17T08:46:50;22.13;;;5.87;;
72647;SDS011;60693;50.002;8.644;2022-12-17T08:49:35;23.33;;;5.35;;
72647;SDS011;60693;50.002;8.644;2022-12-17T08:52:19;22.15;;;6.45;;
72647;SDS011;60693;50.002;8.644;2022-12-17T08:55:03;22.38;;;7.57;;
72647;SDS011;60693;50.002;8.644;2022-12-17T08:57:54;28.55;;;9.20;;
72647;SDS011;60693;50.002;8.644;2022-12-17T09:00:39;18.37;;;7.50;;
72647;SDS011;60693;50.002;8.644;2022-12-17T09:03:23;23.67;;;7.03;;
72647;SDS011;60693;50.002;8.644;2022-12-17T09:06:08;26.98;;;7.55;;
72647;SDS011;60693;50.002;8.644;2022-12-17T09:08:52;20.73;;;6.82;;
72647;SDS011;60693;50.002;8.644;2022-12-17T09:11:36;23.13;;;7.22;;
72647;SDS011;60693;50.002;8.644;2022-12-17T09:14:21;22.10;;;6.37;;
72647;SDS011;60693;50.002;8.644;2022-12-17T09:17:05;26.77;;;7.10;;
72647;SDS011;60693;50.002;8.644;2022-12-17T09:19:49;31.60;;;7.85;;
72647;SDS011;60693;50.002;8.644;2022-12-17T09:22:33;21.27;;;6.38;;
72647;SDS011;60693;50.002;8.644;2022-12-17T09:25:18;13.45;;;4.55;;
72647;SDS011;60693;50.002;8.644;2022-12-17T09:28:02;20.93;;;6.23;;
72647;SDS011;60693;50.002;8.644;2022-12-17T09:30:46;17.45;;;6.40;;
72647;SDS011;60693;50.002;8.644;2022-12-17T09:33:31;22.83;;;7.15;;
72647;SDS011;60693;50.002;8.644;2022-12-17T09:36:15;22.52;;;7.28;;
72647;SDS011;60693;50.002;8.644;2022-12-17T09:39:00;25.23;;;7.35;;
72647;SDS011;60693;50.002;8.644;2022-12-17T09:44:49;25.95;;;7.15;;
72647;SDS011;60693;50.002;8.644;2022-12-17T09:50:59;30.40;;;8.07;;
72647;SDS011;60693;50.002;8.644;2022-12-17T09:53:49;52.80;;;19.85;;
72647;SDS011;60693;50.002;8.644;2022-12-17T09:56:35;30.17;;;9.50;;
72647;SDS011;60693;50.002;8.644;2022-12-17T09:59:21;29.70;;;8.93;;
72647;SDS011;60693;50.002;8.644;2022-12-17T10:02:11;23.77;;;6.95;;
72647;SDS011;60693;50.002;8.644;2022-12-17T10:04:56;21.95;;;8.57;;
72647;SDS011;60693;50.002;8.644;2022-12-17T10:07:41;28.13;;;8.77;;
72647;SDS011;60693;50.002;8.644;2022-12-17T10:10:28;17.37;;;5.07;;
72647;SDS011;60693;50.002;8.644;2022-12-17T10:13:18;22.38;;;6.72;;
72647;SDS011;60693;50.002;8.644;2022-12-17T10:16:15;25.70;;;7.72;;
72647;SDS011;60693;50.002;8.644;2022-12-17T10:19:01;18.25;;;6.55;;
72647;SDS011;60693;50.002;8.644;2022-12-17T10:21:45;23.83;;;9.00;;
72647;SDS011;60693;50.002;8.644;2022-12-17T10:24:29;23.23;;;7.23;;
72647;SDS011;60693;50.002;8.644;2022-12-17T10:27:17;18.25;;;5.85;;
72647;SDS011;60693;50.002;8.644;2022-12-17T10:30:03;21.98;;;7.03;;
72647;SDS011;60693;50.002;8.644;2022-12-17T10:32:54;21.98;;;6.40;;
72647;SDS011;60693;50.002;8.644;2022-12-17T10:35:39;20.70;;;6.97;;
72647;SDS011;60693;50.002;8.644;2022-12-17T10:38:25;19.17;;;5.83;;
72647;SDS011;60693;50.002;8.644;2022-12-17T10:47:15;22.00;;;7.45;;
72647;SDS011;60693;50.002;8.644;2022-12-17T10:53:18;19.87;;;5.53;;
72647;SDS011;60693;50.002;8.644;2022-12-17T10:56:03;19.67;;;6.25;;
72647;SDS011;60693;50.002;8.644;2022-12-17T10:58:48;25.88;;;6.95;;
72647;SDS011;60693;50.002;8.644;2022-12-17T11:01:34;23.48;;;7.07;;
72647;SDS011;60693;50.002;8.644;2022-12-17T11:07:13;72.40;;;28.63;;
72647;SDS011;60693;50.002;8.644;2022-12-17T11:10:00;48.78;;;17.00;;
72647;SDS011;60693;50.002;8.644;2022-12-17T11:12:50;24.38;;;9.13;;
72647;SDS011;60693;50.002;8.644;2022-12-17T11:15:51;23.63;;;7.28;;
72647;SDS011;60693;50.002;8.644;2022-12-17T11:21:47;21.93;;;7.50;;
72647;SDS011;60693;50.002;8.644;2022-12-17T11:24:43;26.58;;;8.02;;
72647;SDS011;60693;50.002;8.644;2022-12-17T11:27:38;20.65;;;7.63;;
72647;SDS011;60693;50.002;8.644;2022-12-17T11:30:28;25.98;;;7.78;;
72647;SDS011;60693;50.002;8.644;2022-12-17T11:33:17;29.23;;;9.50;;
72647;SDS011;60693;50.002;8.644;2022-12-17T11:36:08;23.63;;;7.13;;
72647;SDS011;60693;50.002;8.644;2022-12-17T11:39:13;22.38;;;9.25;;
72647;SDS011;60693;50.002;8.644;2022-12-17T11:45:19;21.38;;;6.63;;
72647;SDS011;60693;50.002;8.644;2022-12-17T11:48:15;64.28;;;25.52;;
72647;SDS011;60693;50.002;8.644;2022-12-17T11:51:30;32.00;;;10.20;;
72647;SDS011;60693;50.002;8.644;2022-12-17T11:57:38;20.63;;;7.40;;
72647;SDS011;60693;50.002;8.644;2022-12-17T12:00:31;22.15;;;6.75;;
72647;SDS011;60693;50.002;8.644;2022-12-17T12:09:41;22.58;;;7.53;;
72647;SDS011;60693;50.002;8.644;2022-12-17T12:12:40;24.30;;;7.53;;
72647;SDS011;60693;50.002;8.644;2022-12-17T12:15:41;23.92;;;7.53;;
72647;SDS011;60693;50.002;8.644;2022-12-17T12:24:57;26.08;;;8.65;;
72647;SDS011;60693;50.002;8.644;2022-12-17T12:31:06;24.77;;;8.18;;
72647;SDS011;60693;50.002;8.644;2022-12-17T12:34:07;28.23;;;8.52;;
72647;SDS011;60693;50.002;8.644;2022-12-17T12:37:11;32.57;;;9.73;;
72647;SDS011;60693;50.002;8.644;2022-12-17T12:40:04;26.75;;;7.32;;
72647;SDS011;60693;50.002;8.644;2022-12-17T12:43:06;23.08;;;8.05;;
72647;SDS011;60693;50.002;8.644;2022-12-17T12:46:01;19.80;;;6.10;;
72647;SDS011;60693;50.002;8.644;2022-12-17T12:49:07;23.17;;;8.45;;
72647;SDS011;60693;50.002;8.644;2022-12-17T12:51:59;21.73;;;7.77;;
72647;SDS011;60693;50.002;8.644;2022-12-17T12:57:31;23.58;;;8.68;;
72647;SDS011;60693;50.002;8.644;2022-12-17T13:06:36;22.77;;;7.33;;
72647;SDS011;60693;50.002;8.644;2022-12-17T13:14:18;31.92;;;10.07;;
72647;SDS011;60693;50.002;8.644;2022-12-17T13:16:55;27.10;;;7.90;;
72647;SDS011;60693;50.002;8.644;2022-12-17T13:21:56;31.80;;;8.55;;
72647;SDS011;60693;50.002;8.644;2022-12-17T13:24:34;30.85;;;9.23;;
72647;SDS011;60693;50.002;8.644;2022-12-17T13:27:00;23.90;;;7.88;;
72647;SDS011;60693;50.002;8.644;2022-12-17T13:29:32;31.02;;;9.25;;
72647;SDS011;60693;50.002;8.644;2022-12-17T13:42:49;24.15;;;8.15;;
72647;SDS011;60693;50.002;8.644;2022-12-17T13:45:15;23.63;;;7.50;;
72647;SDS011;60693;50.002;8.644;2022-12-17T13:47:43;30.90;;;9.03;;
72647;SDS011;60693;50.002;8.644;2022-12-17T13:50:29;24.33;;;7.95;;
72647;SDS011;60693;50.002;8.644;2022-12-17T13:52:55;25.70;;;8.25;;
72647;SDS011;60693;50.002;8.644;2022-12-17T13:55:22;29.70;;;9.90;;
72647;SDS011;60693;50.002;8.644;2022-12-17T13:57:50;27.33;;;8.73;;
72647;SDS011;60693;50.002;8.644;2022-12-17T14:02:47;24.05;;;8.50;;
72647;SDS011;60693;50.002;8.644;2022-12-17T14:07:48;34.45;;;10.60;;
72647;SDS011;60693;50.002;8.644;2022-12-17T14:10:16;31.73;;;9.55;;
72647;SDS011;60693;50.002;8.644;2022-12-17T14:12:43;29.45;;;9.60;;
72647;SDS011;60693;50.002;8.644;2022-12-17T14:15:22;35.53;;;11.10;;
72647;SDS011;60693;50.002;8.644;2022-12-17T14:17:49;28.40;;;9.40;;
72647;SDS011;60693;50.002;8.644;2022-12-17T14:20:17;28.95;;;9.77;;
72647;SDS011;60693;50.002;8.644;2022-12-17T14:22:46;28.38;;;10.10;;
72647;SDS011;60693;50.002;8.644;2022-12-17T14:25:15;27.00;;;8.70;;
72647;SDS011;60693;50.002;8.644;2022-12-17T14:27:54;25.80;;;8.13;;
72647;SDS011;60693;50.002;8.644;2022-12-17T14:30:21;23.55;;;8.32;;
72647;SDS011;60693;50.002;8.644;2022-12-17T14:33:04;28.23;;;9.23;;
72647;SDS011;60693;50.002;8.644;2022-12-17T14:35:53;28.20;;;9.27;;
72647;SDS011;60693;50.002;8.644;2022-12-17T14:38:22;31.20;;;9.00;;
72647;SDS011;60693;50.002;8.644;2022-12-17T14:40:48;35.47;;;10.52;;
72647;SDS011;60693;50.002;8.644;2022-12-17T14:43:14;34.63;;;10.52;;
72647;SDS011;60693;50.002;8.644;2022-12-17T14:45:50;27.97;;;10.17;;
72647;SDS011;60693;50.002;8.644;2022-12-17T14:48:36;33.75;;;11.18;;
72647;SDS011;60693;50.002;8.644;2022-12-17T14:51:33;22.85;;;8.45;;
72647;SDS011;60693;50.002;8.644;2022-12-17T14:54:19;21.83;;;8.20;;
72647;SDS011;60693;50.002;8.644;2022-12-17T14:56:46;31.88;;;10.05;;
72647;SDS011;60693;50.002;8.644;2022-12-17T14:59:33;26.33;;;8.68;;
72647;SDS011;60693;50.002;8.644;2022-12-17T15:04:35;28.92;;;9.02;;
72647;SDS011;60693;50.002;8.644;2022-12-17T15:07:01;31.23;;;10.47;;
72647;SDS011;60693;50.002;8.644;2022-12-17T15:09:28;28.33;;;10.90;;
72647;SDS011;60693;50.002;8.644;2022-12-17T15:11:53;27.88;;;10.02;;
72647;SDS011;60693;50.002;8.644;2022-12-17T15:14:19;30.67;;;9.93;;
72647;SDS011;60693;50.002;8.644;2022-12-17T15:16:45;35.38;;;10.13;;
72647;SDS011;60693;50.002;8.644;2022-12-17T15:19:11;26.42;;;8.55;;
72647;SDS011;60693;50.002;8.644;2022-12-17T15:21:36;28.67;;;10.30;;
72647;SDS011;60693;50.002;8.644;2022-12-17T15:24:02;28.80;;;10.35;;
72647;SDS011;60693;50.002;8.644;2022-12-17T15:26:28;27.90;;;9.15;;
72647;SDS011;60693;50.002;8.644;2022-12-17T15:28:54;29.87;;;9.67;;
72647;SDS011;60693;50.002;8.644;2022-12-17T15:31:19;36.17;;;12.63;;
72647;SDS011;60693;50.002;8.644;2022-12-17T15:33:45;34.67;;;10.60;;
72647;SDS011;60693;50.002;8.644;2022-12-17T15:36:11;31.23;;;10.80;;
72647;SDS011;60693;50.002;8.644;2022-12-17T15:38:37;36.92;;;10.77;;
72647;SDS011;60693;50.002;8.644;2022-12-17T15:41:03;32.13;;;10.65;;
72647;SDS011;60693;50.002;8.644;2022-12-17T15:43:50;31.10;;;10.57;;
72647;SDS011;60693;50.002;8.644;2022-12-17T15:46:15;32.22;;;10.45;;
72647;SDS011;60693;50.002;8.644;2022-12-17T15:48:41;26.23;;;10.13;;
72647;SDS011;60693;50.002;8.644;2022-12-17T15:51:06;31.92;;;9.85;;
72647;SDS011;60693;50.002;8.644;2022-12-17T15:53:33;31.43;;;10.67;;
72647;SDS011;60693;50.002;8.644;2022-12-17T15:55:59;30.48;;;9.90;;
72647;SDS011;60693;50.002;8.644;2022-12-17T15:58:25;48.87;;;17.60;;
72647;SDS011;60693;50.002;8.644;2022-12-17T16:00:51;34.25;;;11.45;;
72647;SDS011;60693;50.002;8.644;2022-12-17T16:03:17;37.43;;;11.10;;
72647;SDS011;60693;50.002;8.644;2022-12-17T16:05:42;30.05;;;10.32;;
72647;SDS011;60693;50.002;8.644;2022-12-17T16:08:08;33.85;;;10.80;;
72647;SDS011;60693;50.002;8.644;2022-12-17T16:10:34;39.23;;;12.50;;
72647;SDS011;60693;50.002;8.644;2022-12-17T16:13:00;36.38;;;11.23;;
72647;SDS011;60693;50.002;8.644;2022-12-17T16:15:25;41.73;;;10.47;;
72647;SDS011;60693;50.002;8.644;2022-12-17T16:17:51;34.00;;;10.80;;
72647;SDS011;60693;50.002;8.644;2022-12-17T16:20:17;37.67;;;11.55;;
72647;SDS011;60693;50.002;8.644;2022-12-17T16:22:42;38.70;;;12.70;;
72647;SDS011;60693;50.002;8.644;2022-12-17T16:25:08;31.70;;;11.02;;
72647;SDS011;60693;50.002;8.644;2022-12-17T16:27:34;37.33;;;11.63;;
72647;SDS011;60693;50.002;8.644;2022-12-17T16:30:00;35.53;;;11.10;;
72647;SDS011;60693;50.002;8.644;2022-12-17T16:32:27;37.33;;;11.07;;
72647;SDS011;60693;50.002;8.644;2022-12-17T16:34:53;31.83;;;10.10;;
72647;SDS011;60693;50.002;8.644;2022-12-17T16:37:19;28.70;;;10.65;;
72647;SDS011;60693;50.002;8.644;2022-12-17T16:39:44;33.37;;;11.97;;
72647;SDS011;60693;50.002;8.644;2022-12-17T16:42:10;37.65;;;12.20;;
72647;SDS011;60693;50.002;8.644;2022-12-17T16:44:36;34.38;;;11.35;;
72647;SDS011;60693;50.002;8.644;2022-12-17T16:47:02;28.00;;;10.33;;
72647;SDS011;60693;50.002;8.644;2022-12-17T16:49:27;31.98;;;11.55;;
72647;SDS011;60693;50.002;8.644;2022-12-17T16:51:54;42.53;;;12.98;;
72647;SDS011;60693;50.002;8.644;2022-12-17T16:54:21;31.53;;;10.67;;
72647;SDS011;60693;50.002;8.644;2022-12-17T16:56:48;30.85;;;10.07;;
72647;SDS011;60693;50.002;8.644;2022-12-17T16:59:14;31.65;;;12.10;;
72647;SDS011;60693;50.002;8.644;2022-12-17T17:01:41;38.08;;;12.27;;
72647;SDS011;60693;50.002;8.644;2022-12-17T17:04:09;31.17;;;9.90;;
72647;SDS011;60693;50.002;8.644;2022-12-17T17:06:42;37.80;;;11.95;;
72647;SDS011;60693;50.002;8.644;2022-12-17T17:09:16;52.17;;;19.02;;
72647;SDS011;60693;50.002;8.644;2022-12-17T17:11:42;41.38;;;16.63;;
72647;SDS011;60693;50.002;8.644;2022-12-17T17:14:07;35.30;;;11.33;;
72647;SDS011;60693;50.002;8.644;2022-12-17T17:16:33;37.72;;;10.80;;
72647;SDS011;60693;50.002;8.644;2022-12-17T17:18:59;31.63;;;9.70;;
72647;SDS011;60693;50.002;8.644;2022-12-17T17:21:32;30.02;;;9.55;;